createdAt,value
2019-02-06T00:02:15.672Z,-2.48
2019-02-06T00:04:48.193Z,-2.24
2019-02-06T00:07:19.624Z,-2.43
2019-02-06T00:09:51.078Z,-2.21
2019-02-06T00:12:22.803Z,-2.38
2019-02-06T00:14:54.279Z,-2.48
2019-02-06T00:17:25.792Z,-2.72
2019-02-06T00:19:57.171Z,-2.46
2019-02-06T00:22:31.520Z,-2.33
2019-02-06T00:25:02.984Z,-2.33
2019-02-06T00:27:34.422Z,-2.21
2019-02-06T00:30:07.944Z,-2.51
2019-02-06T00:32:39.389Z,-2.29
2019-02-06T00:35:10.901Z,-2.40
2019-02-06T00:37:44.258Z,-2.17
2019-02-06T00:40:16.026Z,-2.38
2019-02-06T00:42:47.466Z,-2.39
2019-02-06T00:45:18.958Z,-2.42
2019-02-06T00:47:50.405Z,-2.52
2019-02-06T00:50:22.168Z,-2.25
2019-02-06T00:52:53.628Z,-2.64
2019-02-06T00:55:25.112Z,-2.41
2019-02-06T00:57:56.670Z,-2.39
2019-02-06T01:00:28.365Z,-2.13
2019-02-06T01:03:03.741Z,-2.04
2019-02-06T01:05:38.537Z,-2.16
2019-02-06T01:08:08.445Z,-2.29
2019-02-06T01:10:39.942Z,-2.54
2019-02-06T01:13:11.392Z,-2.47
2019-02-06T01:15:43.162Z,-2.49
2019-02-06T01:18:14.717Z,-2.50
2019-02-06T01:20:46.256Z,-2.37
2019-02-06T01:23:17.810Z,-2.24
2019-02-06T01:25:49.573Z,-2.26
2019-02-06T01:28:21.394Z,-2.34
2019-02-06T01:31:02.859Z,-2.18
2019-02-06T01:33:34.294Z,-2.17
2019-02-06T01:36:06.001Z,-2.94
2019-02-06T01:38:37.470Z,-2.63
2019-02-06T01:41:12.728Z,-2.45
2019-02-06T01:43:43.321Z,-2.45
2019-02-06T01:46:14.801Z,-2.49
2019-02-06T01:48:46.245Z,-2.85
2019-02-06T01:51:17.906Z,-3.12
2019-02-06T01:53:49.377Z,-3.22
2019-02-06T01:56:21.050Z,-3.03
2019-02-06T01:58:52.549Z,-3.12
2019-02-06T02:01:24.050Z,-2.67
2019-02-06T02:03:55.634Z,-3.00
2019-02-06T02:06:27.325Z,-2.94
2019-02-06T02:09:02.088Z,-2.78
2019-02-06T02:11:35.206Z,-3.28
2019-02-06T02:14:07.300Z,-3.16
2019-02-06T02:16:38.840Z,-3.24
2019-02-06T02:19:11.362Z,-3.15
2019-02-06T02:21:42.847Z,-3.01
2019-02-06T02:24:14.306Z,-2.96
2019-02-06T02:26:45.795Z,-2.77
2019-02-06T02:29:18.678Z,-3.29
2019-02-06T02:31:52.417Z,-2.97
2019-02-06T02:34:23.815Z,-3.01
2019-02-06T02:36:55.292Z,-2.87
2019-02-06T02:39:26.741Z,-2.82
2019-02-06T02:41:58.222Z,-3.07
2019-02-06T02:44:29.712Z,-3.03
2019-02-06T02:47:01.262Z,-3.13
2019-02-06T02:49:32.734Z,-3.47
2019-02-06T02:52:07.434Z,-3.26
2019-02-06T02:54:38.884Z,-2.91
2019-02-06T02:57:10.362Z,-3.39
2019-02-06T02:59:41.828Z,-3.33
2019-02-06T03:02:33.282Z,-3.21
2019-02-06T03:05:12.695Z,-3.30
2019-02-06T03:07:44.148Z,-2.94
2019-02-06T03:10:15.625Z,-3.25
2019-02-06T03:12:48.982Z,-3.10
2019-02-06T03:15:20.598Z,-2.81
2019-02-06T03:17:52.204Z,-2.95
2019-02-06T03:20:23.803Z,-2.93
2019-02-06T03:22:55.222Z,-2.95
2019-02-06T03:25:26.670Z,-2.79
2019-02-06T03:27:58.165Z,-3.03
2019-02-06T03:30:29.592Z,-2.93
2019-02-06T03:33:01.066Z,-2.75
2019-02-06T03:35:32.643Z,-3.17
2019-02-06T03:38:04.128Z,-3.20
2019-02-06T03:40:35.589Z,-3.08
2019-02-06T03:43:07.179Z,-3.20
2019-02-06T03:45:38.627Z,-3.02
2019-02-06T03:48:10.098Z,-2.80
2019-02-06T03:50:41.528Z,-3.05
2019-02-06T03:53:13.016Z,-2.85
2019-02-06T03:55:44.648Z,-3.00
2019-02-06T03:58:16.175Z,-2.83
2019-02-06T04:00:47.671Z,-2.80
2019-02-06T04:03:19.135Z,-2.95
2019-02-06T04:05:50.609Z,-2.98
2019-02-06T04:08:23.442Z,-3.27
2019-02-06T04:10:54.828Z,-3.19
2019-02-06T04:13:26.328Z,-2.77
2019-02-06T04:15:57.975Z,-3.02
2019-02-06T04:18:29.499Z,-3.56
2019-02-06T04:21:01.444Z,-3.70
2019-02-06T04:23:33.329Z,-3.75
2019-02-06T04:26:04.773Z,-3.96
2019-02-06T04:28:36.507Z,-3.49
2019-02-06T04:31:08.076Z,-3.52
2019-02-06T04:33:41.292Z,-3.94
2019-02-06T04:36:12.809Z,-3.42
2019-02-06T04:38:44.360Z,-3.64
2019-02-06T04:41:15.863Z,-3.98
2019-02-06T04:43:47.368Z,-3.43
2019-02-06T04:46:19.162Z,-3.62
2019-02-06T04:48:50.607Z,-3.78
2019-02-06T04:51:22.065Z,-3.90
2019-02-06T04:53:53.525Z,-3.87
2019-02-06T04:56:24.996Z,-3.96
2019-02-06T04:58:56.839Z,-3.97
2019-02-06T05:01:28.289Z,-4.18
2019-02-06T05:03:59.777Z,-4.06
2019-02-06T05:06:31.213Z,-4.27
2019-02-06T05:09:06.042Z,-4.05
2019-02-06T05:11:37.886Z,-4.37
2019-02-06T05:14:09.311Z,-4.58
2019-02-06T05:16:40.759Z,-4.51
2019-02-06T05:19:14.019Z,-4.44
2019-02-06T05:21:45.645Z,-4.52
2019-02-06T05:24:17.484Z,-4.15
2019-02-06T05:26:51.919Z,-4.50
2019-02-06T05:29:23.507Z,-4.92
2019-02-06T05:31:56.234Z,-4.54
2019-02-06T05:34:27.654Z,-4.91
2019-02-06T05:36:59.499Z,-4.84
2019-02-06T05:39:31.017Z,-4.56
2019-02-06T05:42:02.510Z,-4.83
2019-02-06T05:44:33.971Z,-4.64
2019-02-06T05:47:05.514Z,-5.11
2019-02-06T05:49:36.915Z,-4.85
2019-02-06T05:52:10.658Z,-4.91
2019-02-06T05:54:44.673Z,-4.93
2019-02-06T05:57:16.113Z,-4.96
2019-02-06T05:59:47.673Z,-4.89
2019-02-06T06:02:19.160Z,-5.09
2019-02-06T06:04:50.649Z,-5.20
2019-02-06T06:07:22.103Z,-5.11
2019-02-06T06:09:53.619Z,-5.26
2019-02-06T06:12:25.091Z,-5.37
2019-02-06T06:14:56.581Z,-5.16
2019-02-06T06:17:28.350Z,-5.30
2019-02-06T06:19:59.746Z,-5.75
2019-02-06T06:22:32.303Z,-5.55
2019-02-06T06:25:03.805Z,-5.77
2019-02-06T06:27:35.307Z,-5.93
2019-02-06T06:30:09.939Z,-6.01
2019-02-06T06:32:41.427Z,-6.09
2019-02-06T06:35:13.239Z,-5.78
2019-02-06T06:37:57.146Z,-5.54
2019-02-06T06:40:21.054Z,-6.25
2019-02-06T06:42:52.532Z,-5.96
2019-02-06T06:45:25.298Z,-6.02
2019-02-06T06:47:56.754Z,-5.85
2019-02-06T06:50:28.474Z,-5.83
2019-02-06T06:52:59.967Z,-5.85
2019-02-06T06:55:31.461Z,-6.05
2019-02-06T06:58:03.209Z,-6.19
2019-02-06T07:00:34.793Z,-5.72
2019-02-06T07:03:06.391Z,-5.74
2019-02-06T07:05:43.097Z,-6.14
2019-02-06T07:08:14.565Z,-5.55
2019-02-06T07:10:46.053Z,-5.82
2019-02-06T07:13:17.527Z,-5.42
2019-02-06T07:15:49.676Z,-5.17
2019-02-06T07:18:21.111Z,-5.03
2019-02-06T07:21:01.395Z,-5.50
2019-02-06T07:23:32.799Z,-5.29
2019-02-06T07:26:04.282Z,-5.05
2019-02-06T07:28:35.749Z,-5.71
2019-02-06T07:31:07.615Z,-5.44
2019-02-06T07:33:39.099Z,-3.97
2019-02-06T07:36:14.009Z,-4.56
2019-02-06T07:38:45.568Z,-4.75
2019-02-06T07:41:18.483Z,-5.29
2019-02-06T07:43:51.315Z,-5.35
2019-02-06T07:46:22.831Z,-5.48
2019-02-06T07:48:54.309Z,-4.99
2019-02-06T07:51:25.811Z,-3.94
2019-02-06T07:53:57.247Z,-4.01
2019-02-06T07:56:28.993Z,-4.67
2019-02-06T07:59:00.534Z,-5.04
2019-02-06T08:01:32.147Z,-4.90
2019-02-06T08:04:03.631Z,-5.13
2019-02-06T08:06:35.102Z,-4.78
2019-02-06T08:09:10.235Z,-4.13
2019-02-06T08:11:41.752Z,-4.10
2019-02-06T08:14:15.033Z,-3.96
2019-02-06T08:16:46.513Z,-3.22
2019-02-06T08:19:20.329Z,-4.09
2019-02-06T08:21:51.823Z,-3.70
2019-02-06T08:24:23.501Z,-3.70
2019-02-06T08:26:54.950Z,-3.51
2019-02-06T08:29:26.498Z,-3.62
2019-02-06T08:31:58.008Z,-3.34
2019-02-06T08:34:29.727Z,-3.07
2019-02-06T08:37:01.766Z,-3.06
2019-02-06T08:39:33.452Z,-3.38
2019-02-06T08:42:05.420Z,-3.59
2019-02-06T08:44:36.852Z,-3.01
2019-02-06T08:47:08.354Z,-3.08
2019-02-06T08:49:42.122Z,-2.88
2019-02-06T08:52:16.306Z,-2.76
2019-02-06T08:54:47.801Z,-2.49
2019-02-06T08:57:19.253Z,-2.56
2019-02-06T08:59:50.794Z,-2.67
2019-02-06T09:02:22.291Z,-2.49
2019-02-06T09:04:55.973Z,-2.48
2019-02-06T09:07:27.088Z,-2.35
2019-02-06T09:10:00.868Z,-1.80
2019-02-06T09:12:34.295Z,-2.13
2019-02-06T09:15:08.546Z,-2.42
2019-02-06T09:17:41.508Z,-2.42
2019-02-06T09:20:19.517Z,-1.73
2019-02-06T09:22:51.038Z,-1.35
2019-02-06T09:25:23.409Z,-1.84
2019-02-06T09:27:54.980Z,-1.55
2019-02-06T09:30:28.788Z,-1.32
2019-02-06T09:33:00.353Z,-1.17
2019-02-06T09:35:32.217Z,-1.13
2019-02-06T09:38:03.855Z,-1.47
2019-02-06T09:40:35.409Z,-0.83
2019-02-06T09:43:06.886Z,-0.82
2019-02-06T09:45:38.498Z,-1.25
2019-02-06T09:48:13.164Z,-1.35
2019-02-06T09:50:44.633Z,-1.27
2019-02-06T09:53:16.242Z,-0.83
2019-02-06T09:55:47.710Z,-1.44
2019-02-06T09:58:19.263Z,-1.33
2019-02-06T10:00:50.979Z,-1.34
2019-02-06T10:03:28.264Z,-0.93
2019-02-06T10:06:01.578Z,-0.69
2019-02-06T10:08:33.076Z,-0.60
2019-02-06T10:11:04.527Z,-0.59
2019-02-06T10:13:36.042Z,-0.68
2019-02-06T10:16:07.558Z,0.01
2019-02-06T10:18:39.098Z,-0.38
2019-02-06T10:21:10.594Z,-0.64
2019-02-06T10:23:42.196Z,-0.43
2019-02-06T10:26:13.656Z,-0.04
2019-02-06T10:28:45.174Z,0.49
2019-02-06T10:31:16.638Z,0.88
2019-02-06T10:33:49.738Z,0.40
2019-02-06T10:36:21.188Z,0.47
2019-02-06T10:38:52.640Z,-0.40
2019-02-06T10:41:24.112Z,0.15
2019-02-06T10:43:57.471Z,0.40
2019-02-06T10:46:30.030Z,0.52
2019-02-06T10:49:01.532Z,0.89
2019-02-06T10:51:33.112Z,0.43
2019-02-06T10:54:04.628Z,0.70
2019-02-06T10:56:36.136Z,0.60
2019-02-06T10:59:07.782Z,0.39
2019-02-06T11:01:39.174Z,-0.09
2019-02-06T11:04:10.654Z,0.58
2019-02-06T11:06:42.138Z,0.38
2019-02-06T11:09:14.032Z,0.81
2019-02-06T11:11:45.525Z,1.24
2019-02-06T11:14:17.073Z,1.23
2019-02-06T11:16:52.368Z,1.34
2019-02-06T11:19:25.334Z,1.18
2019-02-06T11:21:56.828Z,0.95
2019-02-06T11:24:28.401Z,0.89
2019-02-06T11:26:59.839Z,1.14
2019-02-06T11:29:36.812Z,1.03
2019-02-06T11:32:08.287Z,1.45
2019-02-06T11:34:39.783Z,1.18
2019-02-06T11:37:11.548Z,1.05
2019-02-06T11:39:43.438Z,1.10
2019-02-06T11:42:15.106Z,1.43
2019-02-06T11:44:46.576Z,0.88
2019-02-06T11:47:18.098Z,1.15
2019-02-06T11:49:52.136Z,1.09
2019-02-06T11:52:23.890Z,1.37
2019-02-06T11:54:55.356Z,1.55
2019-02-06T11:57:26.812Z,1.50
2019-02-06T12:00:03.663Z,1.37
2019-02-06T12:02:37.286Z,1.60
2019-02-06T12:05:12.483Z,1.86
2019-02-06T12:07:44.039Z,1.83
2019-02-06T12:10:17.563Z,1.95
2019-02-06T12:12:49.311Z,2.03
2019-02-06T12:15:20.793Z,1.66
2019-02-06T12:17:52.299Z,1.85
2019-02-06T12:20:24.546Z,1.79
2019-02-06T12:22:56.064Z,1.79
2019-02-06T12:25:27.673Z,1.85
2019-02-06T12:27:59.187Z,2.07
2019-02-06T12:30:32.802Z,2.05
2019-02-06T12:33:04.379Z,1.96
2019-02-06T12:35:35.916Z,2.31
2019-02-06T12:38:10.985Z,2.29
2019-02-06T12:40:42.466Z,2.56
2019-02-06T12:43:13.960Z,2.46
2019-02-06T12:45:45.625Z,2.13
2019-02-06T12:48:17.075Z,2.32
2019-02-06T12:50:48.657Z,2.42
2019-02-06T12:53:20.127Z,2.32
2019-02-06T12:55:51.640Z,2.02
2019-02-06T12:58:26.444Z,2.09
2019-02-06T13:00:57.988Z,2.26
2019-02-06T13:03:29.457Z,2.13
2019-02-06T13:06:00.964Z,1.95
2019-02-06T13:08:32.430Z,2.01
2019-02-06T13:11:04.355Z,1.43
2019-02-06T13:13:35.787Z,1.49
2019-02-06T13:16:07.301Z,1.58
2019-02-06T13:18:39.622Z,1.25
2019-02-06T13:21:11.108Z,1.24
2019-02-06T13:23:42.843Z,1.13
2019-02-06T13:26:14.331Z,1.44
2019-02-06T13:28:45.773Z,1.39
2019-02-06T13:31:17.289Z,1.35
2019-02-06T13:33:48.769Z,1.73
2019-02-06T13:36:20.572Z,1.66
2019-02-06T13:38:52.385Z,1.70
2019-02-06T13:41:23.943Z,1.55
2019-02-06T13:43:55.403Z,1.16
2019-02-06T13:46:27.221Z,1.57
2019-02-06T13:48:59.015Z,1.52
2019-02-06T13:51:30.579Z,1.54
2019-02-06T13:54:02.047Z,1.49
2019-02-06T13:56:33.592Z,1.49
2019-02-06T13:59:07.309Z,1.57
2019-02-06T14:01:38.263Z,1.26
2019-02-06T14:04:09.641Z,1.39
2019-02-06T14:06:42.111Z,1.58
2019-02-06T14:09:22.543Z,1.08
2019-02-06T14:11:49.377Z,0.90
2019-02-06T14:14:21.234Z,1.16
2019-02-06T14:16:52.835Z,1.20
2019-02-06T14:19:24.221Z,1.34
2019-02-06T14:21:55.827Z,1.34
2019-02-06T14:24:56.569Z,1.08
2019-02-06T14:28:18.839Z,1.17
2019-02-06T14:31:51.955Z,1.14
2019-02-06T14:35:02.290Z,1.23
2019-02-06T14:38:17.259Z,0.98
2019-02-06T14:41:45.147Z,1.22
2019-02-06T14:45:21.419Z,1.40
2019-02-06T14:48:49.399Z,1.24
2019-02-06T14:52:12.247Z,1.24
2019-02-06T14:55:16.782Z,1.19
2019-02-06T14:58:40.229Z,1.08
2019-02-06T15:01:26.407Z,1.24
2019-02-06T15:04:41.591Z,1.27
2019-02-06T15:07:46.815Z,1.27
2019-02-06T15:11:25.798Z,1.23
2019-02-06T15:15:02.945Z,1.26
2019-02-06T15:18:15.070Z,1.19
2019-02-06T15:21:38.161Z,1.17
2019-02-06T15:25:21.925Z,1.04
2019-02-06T15:28:28.029Z,0.99
2019-02-06T15:32:08.138Z,1.13
2019-02-06T15:35:48.501Z,1.00
2019-02-06T15:39:23.124Z,0.78
2019-02-06T15:42:14.341Z,0.93
2019-02-06T15:46:03.150Z,0.92
2019-02-06T15:49:04.575Z,0.89
2019-02-06T15:52:38.891Z,0.85
2019-02-06T15:56:35.359Z,0.91
2019-02-06T15:59:50.706Z,0.65
2019-02-06T16:03:13.732Z,0.46
2019-02-06T16:06:23.314Z,0.72
2019-02-06T16:09:51.617Z,0.56
2019-02-06T16:13:15.829Z,0.13
2019-02-06T16:16:59.100Z,-0.11
2019-02-06T16:20:48.619Z,0.00
2019-02-06T16:24:28.140Z,-0.05
2019-02-06T16:27:48.257Z,0.11
2019-02-06T16:31:16.332Z,-0.22
2019-02-06T16:34:34.878Z,-0.11
2019-02-06T16:37:56.825Z,-0.24
2019-02-06T16:41:40.643Z,-0.34
2019-02-06T16:45:07.040Z,-0.38
2019-02-06T16:48:13.260Z,-0.58
2019-02-06T16:50:56.003Z,-0.61
2019-02-06T16:54:34.430Z,-0.67
2019-02-06T16:57:47.168Z,-0.50
2019-02-06T17:01:58.340Z,-0.93
2019-02-06T17:05:31.033Z,-0.69
2019-02-06T17:08:42.167Z,-0.72
2019-02-06T17:11:39.588Z,-0.89
2019-02-06T17:15:13.282Z,-0.75
2019-02-06T17:18:35.205Z,-0.60
2019-02-06T17:21:59.324Z,-0.88
2019-02-06T17:25:26.575Z,-1.02
2019-02-06T17:28:54.113Z,-0.90
2019-02-06T17:32:12.085Z,-0.75
2019-02-06T17:36:05.634Z,-1.09
2019-02-06T17:39:40.165Z,-1.05
2019-02-06T17:43:11.938Z,-1.02
2019-02-06T17:46:06.106Z,-1.14
2019-02-06T17:49:24.323Z,-1.52
2019-02-06T17:52:50.461Z,-1.24
2019-02-06T17:55:25.746Z,-1.14
2019-02-06T17:58:07.344Z,-1.07
2019-02-06T18:01:22.882Z,-1.23
2019-02-06T18:04:02.553Z,-1.27
2019-02-06T18:06:34.019Z,-1.28
2019-02-06T18:09:17.488Z,-1.47
2019-02-06T18:11:52.339Z,-1.46
2019-02-06T18:14:23.844Z,-1.75
2019-02-06T18:16:55.298Z,-2.03
2019-02-06T18:19:26.901Z,-1.83
2019-02-06T18:21:58.474Z,-1.54
2019-02-06T18:24:29.963Z,-1.53
2019-02-06T18:27:02.040Z,-1.52
2019-02-06T18:29:33.577Z,-1.79
2019-02-06T18:32:05.744Z,-1.91
2019-02-06T18:34:37.293Z,-1.89
2019-02-06T18:37:08.850Z,-1.80
2019-02-06T18:39:40.364Z,-1.92
2019-02-06T18:42:12.234Z,-1.89
2019-02-06T18:44:43.749Z,-1.75
2019-02-06T18:47:15.263Z,-1.64
2019-02-06T18:49:48.527Z,-1.84
2019-02-06T18:52:20.705Z,-2.02
2019-02-06T18:54:52.353Z,-1.98
2019-02-06T18:57:23.970Z,-1.92
2019-02-06T18:59:57.345Z,-2.02
2019-02-06T19:02:30.663Z,-1.94
2019-02-06T19:05:03.583Z,-1.93
2019-02-06T19:07:35.106Z,-2.20
2019-02-06T19:10:10.043Z,-2.09
2019-02-06T19:12:48.180Z,-2.03
2019-02-06T19:15:18.494Z,-2.46
2019-02-06T19:17:50.798Z,-2.14
2019-02-06T19:20:22.432Z,-2.41
2019-02-06T19:22:53.926Z,-2.23
2019-02-06T19:25:26.692Z,-2.46
2019-02-06T19:27:59.415Z,-2.50
2019-02-06T19:30:36.225Z,-2.29
2019-02-06T19:33:08.410Z,-2.20
2019-02-06T19:35:39.880Z,-2.45
2019-02-06T19:38:11.342Z,-2.42
2019-02-06T19:40:42.991Z,-2.36
2019-02-06T19:43:14.619Z,-2.33
2019-02-06T19:45:49.953Z,-2.74
2019-02-06T19:48:22.458Z,-2.87
2019-02-06T19:50:56.789Z,-2.39
2019-02-06T19:53:30.470Z,-2.59
2019-02-06T19:56:02.132Z,-2.34
2019-02-06T19:58:35.533Z,-2.54
2019-02-06T20:01:07.160Z,-2.70
2019-02-06T20:03:38.713Z,-2.91
2019-02-06T20:06:28.750Z,-2.78
2019-02-06T20:09:05.506Z,-2.96
2019-02-06T20:11:38.668Z,-2.66
2019-02-06T20:14:10.847Z,-2.64
2019-02-06T20:16:44.396Z,-2.87
2019-02-06T20:19:15.975Z,-2.52
2019-02-06T20:21:47.755Z,-2.99
2019-02-06T20:24:20.576Z,-2.87
2019-02-06T20:26:52.034Z,-3.08
2019-02-06T20:29:23.509Z,-2.74
2019-02-06T20:31:55.011Z,-3.00
2019-02-06T20:34:26.765Z,-3.02
2019-02-06T20:36:58.210Z,-3.05
2019-02-06T20:39:29.823Z,-3.05
2019-02-06T20:42:01.303Z,-2.85
2019-02-06T20:44:34.094Z,-2.88
2019-02-06T20:47:05.622Z,-2.92
2019-02-06T20:49:40.338Z,-2.73
2019-02-06T20:52:11.813Z,-2.66
2019-02-06T20:54:43.522Z,-2.69
2019-02-06T20:57:16.564Z,-2.93
2019-02-06T20:59:51.191Z,-3.25
2019-02-06T21:02:23.023Z,-3.30
2019-02-06T21:04:54.543Z,-3.12
2019-02-06T21:07:26.055Z,-3.19
2019-02-06T21:09:57.654Z,-3.19
2019-02-06T21:12:29.278Z,-2.68
2019-02-06T21:15:01.236Z,-2.67
2019-02-06T21:17:34.289Z,-2.57
2019-02-06T21:20:08.508Z,-2.67
2019-02-06T21:22:42.617Z,-2.97
2019-02-06T21:25:19.060Z,-2.62
2019-02-06T21:27:51.540Z,-2.78
2019-02-06T21:30:26.539Z,-3.18
2019-02-06T21:33:00.511Z,-3.42
2019-02-06T21:35:34.779Z,-3.45
2019-02-06T21:38:06.457Z,-3.27
2019-02-06T21:40:38.005Z,-3.11
2019-02-06T21:43:09.793Z,-2.94
2019-02-06T21:45:41.264Z,-3.03
2019-02-06T21:48:12.742Z,-3.08
2019-02-06T21:50:44.849Z,-2.99
2019-02-06T21:53:16.274Z,-2.98
2019-02-06T21:55:47.773Z,-2.73
2019-02-06T21:58:19.216Z,-2.87
2019-02-06T22:00:50.735Z,-2.81
2019-02-06T22:03:22.249Z,-2.83
2019-02-06T22:05:53.744Z,-2.86
2019-02-06T22:08:25.195Z,-2.83
2019-02-06T22:10:56.739Z,-2.92
2019-02-06T22:13:28.247Z,-3.49
2019-02-06T22:16:02.553Z,-3.25
2019-02-06T22:18:34.053Z,-3.10
2019-02-06T22:21:05.549Z,-3.42
2019-02-06T22:23:37.063Z,-3.54
2019-02-06T22:26:08.611Z,-3.31
2019-02-06T22:28:40.079Z,-3.01
2019-02-06T22:31:13.317Z,-3.33
2019-02-06T22:33:46.947Z,-3.31
2019-02-06T22:36:18.084Z,-3.25
2019-02-06T22:38:49.556Z,-3.55
2019-02-06T22:41:21.039Z,-3.32
2019-02-06T22:43:52.749Z,-3.49
2019-02-06T22:46:27.084Z,-3.84
2019-02-06T22:48:58.513Z,-3.68
2019-02-06T22:51:30.499Z,-3.74
2019-02-06T22:54:02.068Z,-3.45
2019-02-06T22:56:33.641Z,-3.52
2019-02-06T22:59:05.366Z,-3.59
2019-02-06T23:01:48.689Z,-3.64
2019-02-06T23:04:21.530Z,-3.43
2019-02-06T23:06:53.133Z,-3.73
2019-02-06T23:09:26.919Z,-3.65
2019-02-06T23:11:59.924Z,-3.41
2019-02-06T23:14:31.695Z,-3.71
2019-02-06T23:17:03.201Z,-3.60
2019-02-06T23:19:36.953Z,-3.96
2019-02-06T23:22:09.304Z,-3.84
2019-02-06T23:24:40.743Z,-3.45
2019-02-06T23:27:12.299Z,-3.56
2019-02-06T23:29:43.799Z,-3.34
2019-02-06T23:32:15.292Z,-3.28
2019-02-06T23:34:46.753Z,-3.54
2019-02-06T23:37:18.241Z,-3.51
2019-02-06T23:39:52.837Z,-3.52
2019-02-06T23:42:24.321Z,-3.30
2019-02-06T23:44:55.792Z,-3.41
2019-02-06T23:47:27.321Z,-3.73
2019-02-06T23:50:00.393Z,-4.11
2019-02-06T23:52:32.028Z,-3.68
2019-02-06T23:55:05.532Z,-3.66
2019-02-06T23:57:37.031Z,-3.96
